createdAt,value
2023-05-03T04:02:51.559Z,7.40
2023-05-03T04:05:20.459Z,7.50
2023-05-03T04:07:48.943Z,7.50
2023-05-03T04:10:17.810Z,7.40
2023-05-03T04:12:46.321Z,7.20
2023-05-03T04:15:15.695Z,7.20
2023-05-03T04:17:44.595Z,7.60
2023-05-03T04:20:15.216Z,7.60
2023-05-03T04:22:43.675Z,7.60
2023-05-03T04:25:15.054Z,7.90
2023-05-03T04:27:43.587Z,8.10
2023-05-03T04:30:15.597Z,8.10
2023-05-03T04:32:44.400Z,8.20
2023-05-03T04:35:14.429Z,8.10
2023-05-03T04:37:43.378Z,8.30
2023-05-03T04:40:12.453Z,8.20
2023-05-03T04:42:42.452Z,8.40
2023-05-03T04:45:11.979Z,8.50
2023-05-03T04:47:40.529Z,8.10
2023-05-03T04:50:11.077Z,8.60
2023-05-03T04:52:41.195Z,8.50
2023-05-03T04:55:10.583Z,8.70
2023-05-03T04:57:39.764Z,9.20
2023-05-03T05:00:12.085Z,9.00
2023-05-03T05:02:40.749Z,9.30
2023-05-03T05:05:10.611Z,9.50
2023-05-03T05:07:41.032Z,9.80
2023-05-03T05:10:11.048Z,9.80
2023-05-03T05:12:39.730Z,9.30
2023-05-03T05:15:09.439Z,9.50
2023-05-03T05:17:38.130Z,9.60
2023-05-03T05:20:08.260Z,9.50
2023-05-03T05:22:36.737Z,9.40
2023-05-03T05:25:07.630Z,9.90
2023-05-03T05:27:36.687Z,9.70
2023-05-03T05:30:06.450Z,9.90
2023-05-03T05:32:34.972Z,10.40
2023-05-03T05:35:03.655Z,10.50
2023-05-03T05:37:32.288Z,10.30
2023-05-03T05:40:01.050Z,10.60
2023-05-03T05:42:31.368Z,10.60
2023-05-03T05:44:59.890Z,10.70
2023-05-03T05:47:28.484Z,10.50
2023-05-03T05:49:57.298Z,10.50
2023-05-03T05:52:25.933Z,10.30
2023-05-03T05:54:54.626Z,10.40
2023-05-03T05:57:23.181Z,11.00
2023-05-03T05:59:54.167Z,11.20
2023-05-03T06:02:24.857Z,11.00
2023-05-03T06:04:53.559Z,11.50
2023-05-03T06:07:22.095Z,11.30
2023-05-03T06:09:50.741Z,10.40
2023-05-03T06:12:19.252Z,10.90
2023-05-03T06:15:01.563Z,11.30
2023-05-03T06:17:32.497Z,11.50
2023-05-03T06:20:01.863Z,11.40
2023-05-03T06:22:30.586Z,10.90
2023-05-03T06:24:59.851Z,10.50
2023-05-03T06:27:28.339Z,10.40
2023-05-03T06:29:56.918Z,11.10
2023-05-03T06:32:25.619Z,10.90
2023-05-03T06:34:55.643Z,10.70
2023-05-03T06:37:24.731Z,10.80
2023-05-03T06:39:53.371Z,11.00
2023-05-03T06:42:22.036Z,11.00
2023-05-03T06:44:50.574Z,10.60
2023-05-03T06:47:20.210Z,11.20
2023-05-03T06:49:48.753Z,10.70
2023-05-03T06:52:18.610Z,10.50
2023-05-03T06:54:47.101Z,10.20
2023-05-03T06:57:15.606Z,10.40
2023-05-03T06:59:44.073Z,10.60
2023-05-03T07:02:12.659Z,11.10
2023-05-03T07:04:41.314Z,11.40
2023-05-03T07:07:09.959Z,11.80
2023-05-03T07:09:43.544Z,11.80
2023-05-03T07:12:12.863Z,11.40
2023-05-03T07:14:41.636Z,11.40
2023-05-03T07:17:10.347Z,11.10
2023-05-03T07:19:39.682Z,11.20
2023-05-03T07:22:08.207Z,11.50
2023-05-03T07:24:36.866Z,11.80
2023-05-03T07:27:06.738Z,11.40
2023-05-03T07:29:35.731Z,11.70
2023-05-03T07:32:05.360Z,12.10
2023-05-03T07:34:33.894Z,11.60
2023-05-03T07:37:02.506Z,11.50
2023-05-03T07:39:31.873Z,11.80
2023-05-03T07:42:00.517Z,11.80
2023-05-03T07:44:30.906Z,12.20
2023-05-03T07:46:59.914Z,12.00
2023-05-03T07:49:28.636Z,12.50
2023-05-03T07:51:57.184Z,12.40
2023-05-03T07:54:25.805Z,12.50
2023-05-03T07:56:55.694Z,12.50
2023-05-03T07:59:24.452Z,12.50
2023-05-03T08:01:54.405Z,12.20
2023-05-03T08:04:24.331Z,12.10
2023-05-03T08:06:54.533Z,12.80
2023-05-03T08:09:23.768Z,12.90
2023-05-03T08:11:52.299Z,12.20
2023-05-03T08:14:20.898Z,11.80
2023-05-03T08:16:49.421Z,11.90
2023-05-03T08:19:19.296Z,12.40
2023-05-03T08:21:48.266Z,12.00
2023-05-03T08:24:16.756Z,12.70
2023-05-03T08:26:48.374Z,12.80
2023-05-03T08:29:17.283Z,12.60
2023-05-03T08:31:45.902Z,12.20
2023-05-03T08:34:14.940Z,12.00
2023-05-03T08:36:44.844Z,11.60
2023-05-03T08:39:15.211Z,12.20
2023-05-03T08:41:43.816Z,11.90
2023-05-03T08:44:18.093Z,12.30
2023-05-03T08:46:46.754Z,13.10
2023-05-03T08:49:15.769Z,13.80
2023-05-03T08:51:47.962Z,14.30
2023-05-03T08:54:16.608Z,14.70
2023-05-03T08:56:46.560Z,14.10
2023-05-03T08:59:17.152Z,13.00
2023-05-03T09:01:45.871Z,12.50
2023-05-03T09:04:15.033Z,13.00
2023-05-03T09:06:45.872Z,13.70
2023-05-03T09:09:14.430Z,13.70
2023-05-03T09:11:42.982Z,14.50
2023-05-03T09:14:13.956Z,13.80
2023-05-03T09:16:44.435Z,14.40
2023-05-03T09:19:14.763Z,14.00
2023-05-03T09:21:46.945Z,13.80
2023-05-03T09:24:16.985Z,13.70
2023-05-03T09:26:46.928Z,13.60
2023-05-03T09:29:31.139Z,14.20
2023-05-03T09:32:01.208Z,14.10
2023-05-03T09:34:29.876Z,14.90
2023-05-03T09:37:00.964Z,13.50
2023-05-03T09:39:29.624Z,15.20
2023-05-03T09:41:58.296Z,15.20
2023-05-03T09:44:44.958Z,14.40
2023-05-03T09:47:14.115Z,14.10
2023-05-03T09:49:42.948Z,14.60
2023-05-03T09:52:13.352Z,14.40
2023-05-03T09:54:43.196Z,15.10
2023-05-03T09:57:14.710Z,14.80
2023-05-03T09:59:46.057Z,15.50
2023-05-03T10:02:15.239Z,15.70
2023-05-03T10:04:48.580Z,16.60
2023-05-03T10:07:20.736Z,16.90
2023-05-03T10:09:49.962Z,17.70
2023-05-03T10:12:18.786Z,18.10
2023-05-03T10:14:48.951Z,18.90
2023-05-03T10:17:31.952Z,18.90
2023-05-03T10:20:13.871Z,18.60
2023-05-03T10:23:12.529Z,18.60
2023-05-03T10:26:02.944Z,19.40
2023-05-03T10:28:31.667Z,20.00
2023-05-03T10:31:00.265Z,19.90
2023-05-03T10:33:34.747Z,19.90
2023-05-03T10:36:11.034Z,19.50
2023-05-03T10:38:41.433Z,19.10
2023-05-03T10:41:09.953Z,18.20
2023-05-03T10:43:46.875Z,18.00
2023-05-03T10:46:35.914Z,17.30
2023-05-03T10:49:20.802Z,17.50
2023-05-03T10:51:49.582Z,17.80
2023-05-03T10:54:19.673Z,19.00
2023-05-03T10:56:52.901Z,20.70
2023-05-03T10:59:22.024Z,20.70
2023-05-03T11:01:52.393Z,21.80
2023-05-03T11:04:31.943Z,22.40
2023-05-03T11:07:01.379Z,20.90
2023-05-03T11:09:35.676Z,20.40
2023-05-03T11:12:10.072Z,21.00
2023-05-03T11:14:39.630Z,21.80
2023-05-03T11:17:08.346Z,21.60
2023-05-03T11:19:37.914Z,22.60
2023-05-03T11:22:07.138Z,23.50
2023-05-03T11:24:37.329Z,23.00
2023-05-03T11:27:08.510Z,23.80
2023-05-03T11:29:37.979Z,25.40
2023-05-03T11:32:10.493Z,24.80
2023-05-03T11:34:40.707Z,25.80
2023-05-03T11:37:10.863Z,26.10
2023-05-03T11:39:40.966Z,26.10
2023-05-03T11:42:09.796Z,26.10
2023-05-03T11:44:38.552Z,27.10
2023-05-03T11:47:08.039Z,27.70
2023-05-03T11:49:36.813Z,28.40
2023-05-03T11:52:05.795Z,28.50
2023-05-03T11:54:34.331Z,28.00
2023-05-03T11:57:15.091Z,27.00
2023-05-03T11:59:44.771Z,28.40
2023-05-03T12:02:15.298Z,30.80
2023-05-03T12:04:46.390Z,29.60
2023-05-03T12:07:32.340Z,27.20
2023-05-03T12:12:40.639Z,32.90
2023-05-03T12:15:13.191Z,32.10
2023-05-03T12:17:48.875Z,35.20
2023-05-03T12:22:53.052Z,31.80
2023-05-03T12:25:26.610Z,32.40
2023-05-03T12:28:18.048Z,32.90
2023-05-03T12:30:47.876Z,35.90
2023-05-03T12:33:21.122Z,37.70
2023-05-03T12:35:53.123Z,36.30
2023-05-03T12:38:24.211Z,36.00
2023-05-03T12:40:54.911Z,37.70
2023-05-03T12:43:25.486Z,36.70
2023-05-03T12:46:14.887Z,35.50
2023-05-03T12:48:46.240Z,39.10
2023-05-03T12:53:48.011Z,41.00
2023-05-03T12:56:17.344Z,39.50
2023-05-03T13:02:19.204Z,38.30
2023-05-03T13:06:44.785Z,36.30
2023-05-03T13:11:50.006Z,38.90
2023-05-03T13:14:20.510Z,39.20
2023-05-03T13:16:51.164Z,36.10
2023-05-03T13:19:19.729Z,37.60
2023-05-03T13:21:49.437Z,35.70
2023-05-03T13:24:17.967Z,36.70
2023-05-03T13:26:46.584Z,39.10
2023-05-03T13:29:15.114Z,41.10
2023-05-03T13:31:45.127Z,42.20
2023-05-03T13:34:13.679Z,44.20
2023-05-03T13:36:42.230Z,41.20
2023-05-03T13:39:10.929Z,40.20
2023-05-03T13:41:42.059Z,41.30
2023-05-03T13:44:11.518Z,43.70
2023-05-03T13:46:41.426Z,45.90
2023-05-03T13:49:11.824Z,45.80
2023-05-03T13:51:40.851Z,45.80
2023-05-03T13:54:09.697Z,44.70
2023-05-03T13:56:38.315Z,45.30
2023-05-03T13:59:10.260Z,45.60
2023-05-03T14:01:38.936Z,46.40
2023-05-03T14:04:07.779Z,49.30
2023-05-03T14:06:40.412Z,49.20
2023-05-03T14:09:10.638Z,49.50
2023-05-03T14:11:39.973Z,41.50
2023-05-03T14:14:08.498Z,36.80
2023-05-03T14:16:41.379Z,43.40
2023-05-03T14:19:11.673Z,45.20
2023-05-03T14:21:43.259Z,47.20
2023-05-03T14:24:12.384Z,46.40
2023-05-03T14:26:41.162Z,47.10
2023-05-03T14:29:09.662Z,45.10
2023-05-03T14:31:38.291Z,44.60
2023-05-03T14:34:06.885Z,42.60
2023-05-03T14:36:39.545Z,45.20
2023-05-03T14:39:09.389Z,45.40
2023-05-03T14:41:37.863Z,46.30
2023-05-03T14:44:06.794Z,46.50
2023-05-03T14:46:35.358Z,47.10
2023-05-03T14:49:04.219Z,47.20
2023-05-03T14:51:33.551Z,43.70
2023-05-03T14:54:02.309Z,42.80
2023-05-03T14:56:32.911Z,40.40
2023-05-03T14:59:01.938Z,42.60
2023-05-03T15:01:30.550Z,38.90
2023-05-03T15:03:59.129Z,37.50
2023-05-03T15:06:30.810Z,40.10
2023-05-03T15:08:59.775Z,41.40
2023-05-03T15:11:28.544Z,42.20
2023-05-03T15:13:58.630Z,42.20
2023-05-03T15:16:27.611Z,42.20
2023-05-03T15:18:56.142Z,42.30
2023-05-03T15:21:24.718Z,40.90
2023-05-03T15:23:54.424Z,43.50
2023-05-03T15:26:24.405Z,43.20
2023-05-03T15:28:53.129Z,43.90
2023-05-03T15:31:22.953Z,37.70
2023-05-03T15:33:51.515Z,40.30
2023-05-03T15:36:20.182Z,38.20
2023-05-03T15:38:50.191Z,38.00
2023-05-03T15:41:18.799Z,40.50
2023-05-03T15:43:47.586Z,40.80
2023-05-03T15:46:16.358Z,40.50
2023-05-03T15:48:46.336Z,41.00
2023-05-03T15:51:14.903Z,37.80
2023-05-03T15:53:43.690Z,36.10
2023-05-03T15:56:12.468Z,37.50
2023-05-03T15:58:41.175Z,40.60
2023-05-03T16:01:10.595Z,37.90
2023-05-03T16:03:39.141Z,38.90
2023-05-03T16:06:09.332Z,39.60
2023-05-03T16:08:38.015Z,40.40
2023-05-03T16:11:06.840Z,36.50
2023-05-03T16:13:35.643Z,39.20
2023-05-03T16:16:04.395Z,37.90
2023-05-03T16:18:32.974Z,40.30
2023-05-03T16:21:02.963Z,40.20
2023-05-03T16:23:32.946Z,40.80
2023-05-03T16:26:01.481Z,41.40
2023-05-03T16:28:30.446Z,40.30
2023-05-03T16:30:58.960Z,40.60
2023-05-03T16:33:28.200Z,39.40
2023-05-03T16:35:57.053Z,38.60
2023-05-03T16:38:30.316Z,38.60
2023-05-03T16:41:02.006Z,38.70
2023-05-03T16:43:32.014Z,38.90
2023-05-03T16:46:01.478Z,38.60
2023-05-03T16:48:31.266Z,39.00
2023-05-03T16:51:00.486Z,39.40
2023-05-03T16:53:29.042Z,39.70
2023-05-03T16:55:57.841Z,38.10
2023-05-03T16:58:27.660Z,37.70
2023-05-03T17:00:56.239Z,37.00
2023-05-03T17:03:25.309Z,37.00
2023-05-03T17:05:54.035Z,35.10
2023-05-03T17:08:22.684Z,29.40
2023-05-03T17:10:51.242Z,29.30
2023-05-03T17:13:20.318Z,29.80
2023-05-03T17:15:50.324Z,26.40
2023-05-03T17:18:18.833Z,22.10
2023-05-03T17:20:47.362Z,25.70
2023-05-03T17:23:15.942Z,26.70
2023-05-03T17:25:44.457Z,24.40
2023-05-03T17:28:12.949Z,25.10
2023-05-03T17:30:41.531Z,26.10
2023-05-03T17:33:11.443Z,24.30
2023-05-03T17:35:40.376Z,24.50
2023-05-03T17:38:08.901Z,26.40
2023-05-03T17:40:41.020Z,25.10
2023-05-03T17:43:09.682Z,23.20
2023-05-03T17:45:38.202Z,21.40
2023-05-03T17:48:07.102Z,20.00
2023-05-03T17:50:37.118Z,19.40
2023-05-03T17:53:05.906Z,18.10
2023-05-03T17:55:38.245Z,18.20
2023-05-03T17:58:07.085Z,17.40
2023-05-03T18:00:35.649Z,16.60
2023-05-03T18:03:04.219Z,16.20
2023-05-03T18:05:36.853Z,16.10
2023-05-03T18:08:07.157Z,15.70
2023-05-03T18:10:35.935Z,15.70
2023-05-03T18:13:05.243Z,15.20
2023-05-03T18:15:33.831Z,15.50
2023-05-03T18:18:02.720Z,15.10
2023-05-03T18:20:32.499Z,15.20
2023-05-03T18:23:00.968Z,15.10
2023-05-03T18:25:31.111Z,14.80
2023-05-03T18:27:59.641Z,14.80
2023-05-03T18:30:29.145Z,14.40
2023-05-03T18:32:57.862Z,14.10
2023-05-03T18:35:26.650Z,13.80
2023-05-03T18:37:55.145Z,13.80
2023-05-03T18:40:24.816Z,13.70
2023-05-03T18:42:54.752Z,13.60
2023-05-03T18:45:23.347Z,13.60
2023-05-03T18:47:51.904Z,13.50
2023-05-03T18:50:20.591Z,14.00
2023-05-03T18:52:50.608Z,13.50
2023-05-03T18:55:19.143Z,13.50
2023-05-03T18:57:48.584Z,13.40
2023-05-03T19:00:19.003Z,13.20
2023-05-03T19:02:48.110Z,13.00
2023-05-03T19:05:16.896Z,12.90
2023-05-03T19:07:47.933Z,13.20
2023-05-03T19:10:17.359Z,13.10
2023-05-03T19:12:46.572Z,13.50
2023-05-03T19:15:15.074Z,13.40
2023-05-03T19:17:46.632Z,13.40
2023-05-03T19:20:15.297Z,12.70
2023-05-03T19:22:43.905Z,12.60
2023-05-03T19:25:12.402Z,12.60
2023-05-03T19:27:40.912Z,13.00
2023-05-03T19:30:12.294Z,12.70
2023-05-03T19:32:40.520Z,12.50
2023-05-03T19:35:10.872Z,12.80
2023-05-03T19:37:39.187Z,12.30
2023-05-03T19:40:08.854Z,12.50
2023-05-03T19:42:37.108Z,12.20
2023-05-03T19:45:06.323Z,12.10
2023-05-03T19:47:34.655Z,12.20
2023-05-03T19:50:03.160Z,12.00
2023-05-03T19:52:32.874Z,12.30
2023-05-03T19:55:02.345Z,12.60
2023-05-03T19:57:30.575Z,12.20
2023-05-03T19:59:58.745Z,12.30
2023-05-03T20:02:27.179Z,11.80
2023-05-03T20:04:55.529Z,11.50
2023-05-03T20:07:23.726Z,11.30
2023-05-03T20:09:53.400Z,11.40
2023-05-03T20:12:21.674Z,11.40
2023-05-03T20:14:49.856Z,11.70
2023-05-03T20:17:18.183Z,12.40
2023-05-03T20:19:49.673Z,11.80
2023-05-03T20:22:18.209Z,11.60
2023-05-03T20:24:46.442Z,11.80
2023-05-03T20:27:16.058Z,11.30
2023-05-03T20:29:44.283Z,11.10
2023-05-03T20:32:12.503Z,11.10
2023-05-03T20:34:42.642Z,11.60
2023-05-03T20:37:10.902Z,11.60
2023-05-03T20:39:39.967Z,11.20
2023-05-03T20:42:08.435Z,11.10
2023-05-03T20:44:38.703Z,11.00
2023-05-03T20:47:07.395Z,11.00
2023-05-03T20:49:36.945Z,11.30
2023-05-03T20:52:05.727Z,11.40
2023-05-03T20:54:34.006Z,11.70
2023-05-03T20:57:02.511Z,11.10
2023-05-03T20:59:30.958Z,11.50
